sensor_id;sensor_type;location;lat;lon;timestamp;P1;durP1;ratioP1;P2;durP2;ratioP2
20336;SDS011;10326;53.660;10.200;2022-12-07T00:01:48;13.83;;;12.43;;
20336;SDS011;10326;53.660;10.200;2022-12-07T00:04:15;13.40;;;12.00;;
20336;SDS011;10326;53.660;10.200;2022-12-07T00:06:45;13.53;;;12.23;;
20336;SDS011;10326;53.660;10.200;2022-12-07T00:09:17;14.37;;;12.87;;
20336;SDS011;10326;53.660;10.200;2022-12-07T00:11:48;13.73;;;12.23;;
20336;SDS011;10326;53.660;10.200;2022-12-07T00:14:18;13.27;;;11.97;;
20336;SDS011;10326;53.660;10.200;2022-12-07T00:16:48;13.73;;;12.40;;
20336;SDS011;10326;53.660;10.200;2022-12-07T00:19:16;14.23;;;12.57;;
20336;SDS011;10326;53.660;10.200;2022-12-07T00:21:44;14.20;;;12.70;;
20336;SDS011;10326;53.660;10.200;2022-12-07T00:24:11;14.20;;;12.70;;
20336;SDS011;10326;53.660;10.200;2022-12-07T00:26:39;15.83;;;14.17;;
20336;SDS011;10326;53.660;10.200;2022-12-07T00:29:09;15.23;;;13.80;;
20336;SDS011;10326;53.660;10.200;2022-12-07T00:31:43;15.47;;;13.60;;
20336;SDS011;10326;53.660;10.200;2022-12-07T00:34:12;15.35;;;13.75;;
20336;SDS011;10326;53.660;10.200;2022-12-07T00:36:40;15.70;;;14.20;;
20336;SDS011;10326;53.660;10.200;2022-12-07T00:39:08;15.35;;;13.75;;
20336;SDS011;10326;53.660;10.200;2022-12-07T00:41:35;15.65;;;14.00;;
20336;SDS011;10326;53.660;10.200;2022-12-07T00:44:02;15.93;;;14.32;;
20336;SDS011;10326;53.660;10.200;2022-12-07T00:46:30;15.43;;;13.82;;
20336;SDS011;10326;53.660;10.200;2022-12-07T00:48:58;17.15;;;15.40;;
20336;SDS011;10326;53.660;10.200;2022-12-07T00:51:25;15.55;;;14.02;;
20336;SDS011;10326;53.660;10.200;2022-12-07T00:53:53;16.08;;;14.57;;
20336;SDS011;10326;53.660;10.200;2022-12-07T00:56:21;15.93;;;14.43;;
20336;SDS011;10326;53.660;10.200;2022-12-07T00:58:50;16.88;;;15.18;;
20336;SDS011;10326;53.660;10.200;2022-12-07T01:01:19;16.60;;;14.90;;
20336;SDS011;10326;53.660;10.200;2022-12-07T01:03:46;16.08;;;14.38;;
20336;SDS011;10326;53.660;10.200;2022-12-07T01:06:15;16.02;;;14.48;;
20336;SDS011;10326;53.660;10.200;2022-12-07T01:08:44;15.60;;;14.10;;
20336;SDS011;10326;53.660;10.200;2022-12-07T01:11:12;15.27;;;13.77;;
20336;SDS011;10326;53.660;10.200;2022-12-07T01:13:41;15.77;;;14.18;;
20336;SDS011;10326;53.660;10.200;2022-12-07T01:16:10;15.60;;;14.05;;
20336;SDS011;10326;53.660;10.200;2022-12-07T01:18:40;15.25;;;13.73;;
20336;SDS011;10326;53.660;10.200;2022-12-07T01:21:09;14.98;;;13.48;;
20336;SDS011;10326;53.660;10.200;2022-12-07T01:23:41;14.27;;;12.77;;
20336;SDS011;10326;53.660;10.200;2022-12-07T01:26:10;14.10;;;12.60;;
20336;SDS011;10326;53.660;10.200;2022-12-07T01:28:39;13.57;;;12.27;;
20336;SDS011;10326;53.660;10.200;2022-12-07T01:31:07;14.05;;;12.55;;
20336;SDS011;10326;53.660;10.200;2022-12-07T01:33:36;12.38;;;11.18;;
20336;SDS011;10326;53.660;10.200;2022-12-07T01:36:05;12.25;;;11.05;;
20336;SDS011;10326;53.660;10.200;2022-12-07T01:38:35;11.53;;;10.33;;
20336;SDS011;10326;53.660;10.200;2022-12-07T01:41:03;12.57;;;11.25;;
20336;SDS011;10326;53.660;10.200;2022-12-07T01:43:31;12.57;;;10.70;;
20336;SDS011;10326;53.660;10.200;2022-12-07T01:46:00;11.97;;;10.17;;
20336;SDS011;10326;53.660;10.200;2022-12-07T01:48:30;12.68;;;10.98;;
20336;SDS011;10326;53.660;10.200;2022-12-07T01:51:03;11.15;;;10.05;;
20336;SDS011;10326;53.660;10.200;2022-12-07T01:53:36;11.32;;;9.90;;
20336;SDS011;10326;53.660;10.200;2022-12-07T01:56:11;10.23;;;9.23;;
20336;SDS011;10326;53.660;10.200;2022-12-07T01:58:45;10.38;;;9.23;;
20336;SDS011;10326;53.660;10.200;2022-12-07T02:01:13;10.48;;;9.30;;
20336;SDS011;10326;53.660;10.200;2022-12-07T02:03:41;9.98;;;8.98;;
20336;SDS011;10326;53.660;10.200;2022-12-07T02:06:15;10.07;;;9.05;;
20336;SDS011;10326;53.660;10.200;2022-12-07T02:08:46;11.87;;;8.90;;
20336;SDS011;10326;53.660;10.200;2022-12-07T02:11:14;9.87;;;8.40;;
20336;SDS011;10326;53.660;10.200;2022-12-07T02:13:42;11.13;;;8.70;;
20336;SDS011;10326;53.660;10.200;2022-12-07T02:16:14;9.65;;;7.93;;
20336;SDS011;10326;53.660;10.200;2022-12-07T02:18:55;10.30;;;8.50;;
20336;SDS011;10326;53.660;10.200;2022-12-07T02:21:44;9.77;;;7.82;;
20336;SDS011;10326;53.660;10.200;2022-12-07T02:24:40;9.35;;;7.82;;
20336;SDS011;10326;53.660;10.200;2022-12-07T02:27:25;10.30;;;7.90;;
20336;SDS011;10326;53.660;10.200;2022-12-07T02:30:06;9.43;;;7.53;;
20336;SDS011;10326;53.660;10.200;2022-12-07T02:32:39;8.38;;;7.07;;
20336;SDS011;10326;53.660;10.200;2022-12-07T02:35:11;7.82;;;6.95;;
20336;SDS011;10326;53.660;10.200;2022-12-07T02:37:47;8.80;;;7.17;;
20336;SDS011;10326;53.660;10.200;2022-12-07T02:40:25;7.72;;;6.50;;
20336;SDS011;10326;53.660;10.200;2022-12-07T02:42:58;7.20;;;6.30;;
20336;SDS011;10326;53.660;10.200;2022-12-07T02:45:40;6.23;;;5.50;;
20336;SDS011;10326;53.660;10.200;2022-12-07T02:48:08;7.63;;;6.60;;
20336;SDS011;10326;53.660;10.200;2022-12-07T02:50:38;7.03;;;5.68;;
20336;SDS011;10326;53.660;10.200;2022-12-07T02:55:57;6.60;;;5.17;;
20336;SDS011;10326;53.660;10.200;2022-12-07T02:58:30;7.22;;;5.05;;
20336;SDS011;10326;53.660;10.200;2022-12-07T03:01:11;6.45;;;5.00;;
20336;SDS011;10326;53.660;10.200;2022-12-07T03:03:54;7.07;;;5.18;;
20336;SDS011;10326;53.660;10.200;2022-12-07T03:06:34;6.40;;;4.65;;
20336;SDS011;10326;53.660;10.200;2022-12-07T03:09:11;6.67;;;4.43;;
20336;SDS011;10326;53.660;10.200;2022-12-07T03:11:47;5.83;;;4.37;;
20336;SDS011;10326;53.660;10.200;2022-12-07T03:14:18;4.50;;;3.97;;
20336;SDS011;10326;53.660;10.200;2022-12-07T03:16:55;5.20;;;4.00;;
20336;SDS011;10326;53.660;10.200;2022-12-07T03:19:27;5.00;;;4.13;;
20336;SDS011;10326;53.660;10.200;2022-12-07T03:21:57;5.68;;;4.00;;
20336;SDS011;10326;53.660;10.200;2022-12-07T03:24:27;6.78;;;4.30;;
20336;SDS011;10326;53.660;10.200;2022-12-07T03:27:01;3.77;;;3.17;;
20336;SDS011;10326;53.660;10.200;2022-12-07T03:29:33;5.07;;;3.60;;
20336;SDS011;10326;53.660;10.200;2022-12-07T03:32:06;4.07;;;3.50;;
20336;SDS011;10326;53.660;10.200;2022-12-07T03:34:41;4.97;;;3.33;;
20336;SDS011;10326;53.660;10.200;2022-12-07T03:37:15;3.83;;;3.37;;
20336;SDS011;10326;53.660;10.200;2022-12-07T03:39:54;5.03;;;3.00;;
20336;SDS011;10326;53.660;10.200;2022-12-07T03:42:30;4.33;;;2.90;;
20336;SDS011;10326;53.660;10.200;2022-12-07T03:44:58;4.00;;;2.30;;
20336;SDS011;10326;53.660;10.200;2022-12-07T03:47:29;3.77;;;3.07;;
20336;SDS011;10326;53.660;10.200;2022-12-07T03:50:02;5.07;;;2.90;;
20336;SDS011;10326;53.660;10.200;2022-12-07T03:52:36;3.90;;;2.80;;
20336;SDS011;10326;53.660;10.200;2022-12-07T03:55:10;4.47;;;2.27;;
20336;SDS011;10326;53.660;10.200;2022-12-07T03:57:41;3.37;;;2.33;;
20336;SDS011;10326;53.660;10.200;2022-12-07T04:00:11;2.73;;;2.20;;
20336;SDS011;10326;53.660;10.200;2022-12-07T04:02:42;3.80;;;2.53;;
20336;SDS011;10326;53.660;10.200;2022-12-07T04:05:09;2.70;;;2.30;;
20336;SDS011;10326;53.660;10.200;2022-12-07T04:07:37;3.17;;;2.17;;
20336;SDS011;10326;53.660;10.200;2022-12-07T04:10:05;2.50;;;2.30;;
20336;SDS011;10326;53.660;10.200;2022-12-07T04:12:33;2.07;;;1.90;;
20336;SDS011;10326;53.660;10.200;2022-12-07T04:15:00;2.67;;;2.37;;
20336;SDS011;10326;53.660;10.200;2022-12-07T04:17:28;2.80;;;2.30;;
20336;SDS011;10326;53.660;10.200;2022-12-07T04:19:57;2.83;;;2.40;;
20336;SDS011;10326;53.660;10.200;2022-12-07T04:22:24;2.93;;;2.20;;
20336;SDS011;10326;53.660;10.200;2022-12-07T04:24:51;2.93;;;2.20;;
20336;SDS011;10326;53.660;10.200;2022-12-07T04:27:18;2.73;;;2.07;;
20336;SDS011;10326;53.660;10.200;2022-12-07T04:29:45;2.73;;;2.40;;
20336;SDS011;10326;53.660;10.200;2022-12-07T04:32:12;3.83;;;2.77;;
20336;SDS011;10326;53.660;10.200;2022-12-07T04:34:40;3.07;;;2.80;;
20336;SDS011;10326;53.660;10.200;2022-12-07T04:37:08;3.87;;;2.57;;
20336;SDS011;10326;53.660;10.200;2022-12-07T04:39:35;2.73;;;2.53;;
20336;SDS011;10326;53.660;10.200;2022-12-07T04:42:02;3.07;;;2.73;;
20336;SDS011;10326;53.660;10.200;2022-12-07T04:44:30;2.80;;;2.60;;
20336;SDS011;10326;53.660;10.200;2022-12-07T04:46:57;3.47;;;2.47;;
20336;SDS011;10326;53.660;10.200;2022-12-07T04:49:24;2.97;;;2.33;;
20336;SDS011;10326;53.660;10.200;2022-12-07T04:51:52;2.90;;;2.50;;
20336;SDS011;10326;53.660;10.200;2022-12-07T04:54:20;2.50;;;2.30;;
20336;SDS011;10326;53.660;10.200;2022-12-07T04:56:48;2.77;;;2.47;;
20336;SDS011;10326;53.660;10.200;2022-12-07T04:59:15;3.20;;;2.60;;
20336;SDS011;10326;53.660;10.200;2022-12-07T05:01:43;3.23;;;2.57;;
20336;SDS011;10326;53.660;10.200;2022-12-07T05:04:10;4.83;;;3.20;;
20336;SDS011;10326;53.660;10.200;2022-12-07T05:06:37;5.17;;;2.67;;
20336;SDS011;10326;53.660;10.200;2022-12-07T05:09:05;3.17;;;2.70;;
20336;SDS011;10326;53.660;10.200;2022-12-07T05:11:33;3.33;;;2.67;;
20336;SDS011;10326;53.660;10.200;2022-12-07T05:14:07;4.37;;;2.73;;
20336;SDS011;10326;53.660;10.200;2022-12-07T05:16:38;4.43;;;2.80;;
20336;SDS011;10326;53.660;10.200;2022-12-07T05:19:06;5.03;;;3.40;;
20336;SDS011;10326;53.660;10.200;2022-12-07T05:21:34;4.17;;;3.20;;
20336;SDS011;10326;53.660;10.200;2022-12-07T05:24:02;3.40;;;2.83;;
20336;SDS011;10326;53.660;10.200;2022-12-07T05:26:30;4.37;;;3.07;;
20336;SDS011;10326;53.660;10.200;2022-12-07T05:28:59;3.90;;;2.80;;
20336;SDS011;10326;53.660;10.200;2022-12-07T05:31:26;3.60;;;2.87;;
20336;SDS011;10326;53.660;10.200;2022-12-07T05:33:54;4.00;;;2.87;;
20336;SDS011;10326;53.660;10.200;2022-12-07T05:36:21;3.83;;;3.20;;
20336;SDS011;10326;53.660;10.200;2022-12-07T05:38:49;3.47;;;2.93;;
20336;SDS011;10326;53.660;10.200;2022-12-07T05:41:16;3.83;;;3.20;;
20336;SDS011;10326;53.660;10.200;2022-12-07T05:44:04;4.17;;;3.10;;
20336;SDS011;10326;53.660;10.200;2022-12-07T05:46:31;3.67;;;3.20;;
20336;SDS011;10326;53.660;10.200;2022-12-07T05:48:59;3.50;;;3.03;;
20336;SDS011;10326;53.660;10.200;2022-12-07T05:51:27;4.10;;;3.37;;
20336;SDS011;10326;53.660;10.200;2022-12-07T05:53:54;4.10;;;3.70;;
20336;SDS011;10326;53.660;10.200;2022-12-07T05:56:21;5.00;;;3.47;;
20336;SDS011;10326;53.660;10.200;2022-12-07T05:58:49;3.83;;;3.43;;
20336;SDS011;10326;53.660;10.200;2022-12-07T06:01:35;4.20;;;3.63;;
20336;SDS011;10326;53.660;10.200;2022-12-07T06:04:02;6.27;;;4.00;;
20336;SDS011;10326;53.660;10.200;2022-12-07T06:06:30;4.60;;;3.43;;
20336;SDS011;10326;53.660;10.200;2022-12-07T06:08:57;4.50;;;4.10;;
20336;SDS011;10326;53.660;10.200;2022-12-07T06:11:24;4.70;;;3.63;;
20336;SDS011;10326;53.660;10.200;2022-12-07T06:14:08;4.37;;;3.70;;
20336;SDS011;10326;53.660;10.200;2022-12-07T06:16:37;5.33;;;4.00;;
20336;SDS011;10326;53.660;10.200;2022-12-07T06:19:04;4.63;;;3.90;;
20336;SDS011;10326;53.660;10.200;2022-12-07T06:21:31;4.90;;;4.00;;
20336;SDS011;10326;53.660;10.200;2022-12-07T06:23:58;4.33;;;3.90;;
20336;SDS011;10326;53.660;10.200;2022-12-07T06:26:25;4.33;;;3.93;;
20336;SDS011;10326;53.660;10.200;2022-12-07T06:28:53;5.60;;;4.23;;
20336;SDS011;10326;53.660;10.200;2022-12-07T06:31:20;5.13;;;4.33;;
20336;SDS011;10326;53.660;10.200;2022-12-07T06:33:49;4.47;;;3.87;;
20336;SDS011;10326;53.660;10.200;2022-12-07T06:36:16;5.03;;;4.53;;
20336;SDS011;10326;53.660;10.200;2022-12-07T06:38:43;6.23;;;4.13;;
20336;SDS011;10326;53.660;10.200;2022-12-07T06:41:10;6.03;;;4.77;;
20336;SDS011;10326;53.660;10.200;2022-12-07T06:43:37;4.33;;;3.77;;
20336;SDS011;10326;53.660;10.200;2022-12-07T06:46:05;5.53;;;4.93;;
20336;SDS011;10326;53.660;10.200;2022-12-07T06:48:32;5.70;;;4.67;;
20336;SDS011;10326;53.660;10.200;2022-12-07T06:51:00;5.77;;;5.27;;
20336;SDS011;10326;53.660;10.200;2022-12-07T06:53:27;5.13;;;4.63;;
20336;SDS011;10326;53.660;10.200;2022-12-07T06:55:55;5.07;;;4.60;;
20336;SDS011;10326;53.660;10.200;2022-12-07T06:58:22;5.00;;;4.40;;
20336;SDS011;10326;53.660;10.200;2022-12-07T07:00:50;5.17;;;4.30;;
20336;SDS011;10326;53.660;10.200;2022-12-07T07:03:17;4.83;;;3.87;;
20336;SDS011;10326;53.660;10.200;2022-12-07T07:05:44;5.70;;;4.47;;
20336;SDS011;10326;53.660;10.200;2022-12-07T07:08:13;5.93;;;4.40;;
20336;SDS011;10326;53.660;10.200;2022-12-07T07:10:40;4.73;;;4.13;;
20336;SDS011;10326;53.660;10.200;2022-12-07T07:13:08;4.47;;;4.00;;
20336;SDS011;10326;53.660;10.200;2022-12-07T07:15:37;6.13;;;4.67;;
20336;SDS011;10326;53.660;10.200;2022-12-07T07:18:04;11.10;;;6.90;;
20336;SDS011;10326;53.660;10.200;2022-12-07T07:20:32;5.17;;;4.73;;
20336;SDS011;10326;53.660;10.200;2022-12-07T07:22:59;5.20;;;4.03;;
20336;SDS011;10326;53.660;10.200;2022-12-07T07:25:27;7.67;;;4.13;;
20336;SDS011;10326;53.660;10.200;2022-12-07T07:27:55;4.43;;;3.60;;
20336;SDS011;10326;53.660;10.200;2022-12-07T07:30:22;5.13;;;4.60;;
20336;SDS011;10326;53.660;10.200;2022-12-07T07:32:49;4.87;;;4.17;;
20336;SDS011;10326;53.660;10.200;2022-12-07T07:35:17;6.83;;;4.00;;
20336;SDS011;10326;53.660;10.200;2022-12-07T07:37:44;6.17;;;3.77;;
20336;SDS011;10326;53.660;10.200;2022-12-07T07:40:11;4.60;;;3.90;;
20336;SDS011;10326;53.660;10.200;2022-12-07T07:42:40;4.57;;;3.80;;
20336;SDS011;10326;53.660;10.200;2022-12-07T07:45:07;5.27;;;3.43;;
20336;SDS011;10326;53.660;10.200;2022-12-07T07:47:35;6.10;;;3.93;;
20336;SDS011;10326;53.660;10.200;2022-12-07T07:50:03;3.97;;;3.57;;
20336;SDS011;10326;53.660;10.200;2022-12-07T07:52:31;4.40;;;3.40;;
20336;SDS011;10326;53.660;10.200;2022-12-07T07:54:59;4.63;;;3.43;;
20336;SDS011;10326;53.660;10.200;2022-12-07T07:57:26;6.17;;;3.70;;
20336;SDS011;10326;53.660;10.200;2022-12-07T07:59:54;7.60;;;3.77;;
20336;SDS011;10326;53.660;10.200;2022-12-07T08:02:22;4.10;;;3.10;;
20336;SDS011;10326;53.660;10.200;2022-12-07T08:04:49;3.70;;;3.17;;
20336;SDS011;10326;53.660;10.200;2022-12-07T08:07:16;7.03;;;4.30;;
20336;SDS011;10326;53.660;10.200;2022-12-07T08:09:44;3.70;;;2.73;;
20336;SDS011;10326;53.660;10.200;2022-12-07T08:12:11;4.10;;;2.50;;
20336;SDS011;10326;53.660;10.200;2022-12-07T08:14:38;6.90;;;3.03;;
20336;SDS011;10326;53.660;10.200;2022-12-07T08:17:07;3.90;;;3.10;;
20336;SDS011;10326;53.660;10.200;2022-12-07T08:19:34;3.33;;;3.03;;
20336;SDS011;10326;53.660;10.200;2022-12-07T08:22:01;4.03;;;2.60;;
20336;SDS011;10326;53.660;10.200;2022-12-07T08:24:29;4.83;;;2.40;;
20336;SDS011;10326;53.660;10.200;2022-12-07T08:26:56;3.70;;;2.80;;
20336;SDS011;10326;53.660;10.200;2022-12-07T08:29:23;3.90;;;2.10;;
20336;SDS011;10326;53.660;10.200;2022-12-07T08:31:50;5.17;;;2.67;;
20336;SDS011;10326;53.660;10.200;2022-12-07T08:34:19;4.37;;;2.10;;
20336;SDS011;10326;53.660;10.200;2022-12-07T08:36:46;4.07;;;2.80;;
20336;SDS011;10326;53.660;10.200;2022-12-07T08:39:13;4.17;;;2.57;;
20336;SDS011;10326;53.660;10.200;2022-12-07T08:41:40;5.83;;;2.20;;
20336;SDS011;10326;53.660;10.200;2022-12-07T08:44:08;5.93;;;2.80;;
20336;SDS011;10326;53.660;10.200;2022-12-07T08:46:35;7.23;;;2.43;;
20336;SDS011;10326;53.660;10.200;2022-12-07T08:49:05;5.00;;;2.53;;
20336;SDS011;10326;53.660;10.200;2022-12-07T08:51:40;4.10;;;2.30;;
20336;SDS011;10326;53.660;10.200;2022-12-07T08:54:09;6.73;;;2.53;;
20336;SDS011;10326;53.660;10.200;2022-12-07T08:56:41;3.77;;;2.57;;
20336;SDS011;10326;53.660;10.200;2022-12-07T08:59:09;5.00;;;2.47;;
20336;SDS011;10326;53.660;10.200;2022-12-07T09:01:37;3.93;;;2.40;;
20336;SDS011;10326;53.660;10.200;2022-12-07T09:04:04;5.53;;;2.60;;
20336;SDS011;10326;53.660;10.200;2022-12-07T09:06:32;5.70;;;2.37;;
20336;SDS011;10326;53.660;10.200;2022-12-07T09:09:01;3.70;;;2.20;;
20336;SDS011;10326;53.660;10.200;2022-12-07T09:11:29;4.60;;;2.30;;
20336;SDS011;10326;53.660;10.200;2022-12-07T09:13:57;4.13;;;2.10;;
20336;SDS011;10326;53.660;10.200;2022-12-07T09:16:24;4.80;;;2.03;;
20336;SDS011;10326;53.660;10.200;2022-12-07T09:18:51;5.87;;;2.60;;
20336;SDS011;10326;53.660;10.200;2022-12-07T09:21:18;6.57;;;2.27;;
20336;SDS011;10326;53.660;10.200;2022-12-07T09:23:45;3.20;;;2.03;;
20336;SDS011;10326;53.660;10.200;2022-12-07T09:26:13;4.67;;;2.00;;
20336;SDS011;10326;53.660;10.200;2022-12-07T09:28:41;5.90;;;2.70;;
20336;SDS011;10326;53.660;10.200;2022-12-07T09:31:08;4.50;;;2.83;;
20336;SDS011;10326;53.660;10.200;2022-12-07T09:33:35;5.97;;;3.10;;
20336;SDS011;10326;53.660;10.200;2022-12-07T09:36:03;6.13;;;2.53;;
20336;SDS011;10326;53.660;10.200;2022-12-07T09:38:31;4.50;;;2.40;;
20336;SDS011;10326;53.660;10.200;2022-12-07T09:41:03;5.33;;;3.00;;
20336;SDS011;10326;53.660;10.200;2022-12-07T09:43:33;7.20;;;3.17;;
20336;SDS011;10326;53.660;10.200;2022-12-07T09:46:03;7.27;;;2.90;;
20336;SDS011;10326;53.660;10.200;2022-12-07T09:48:32;5.93;;;2.87;;
20336;SDS011;10326;53.660;10.200;2022-12-07T09:51:09;8.57;;;4.60;;
20336;SDS011;10326;53.660;10.200;2022-12-07T09:53:42;7.17;;;3.77;;
20336;SDS011;10326;53.660;10.200;2022-12-07T09:56:11;8.20;;;2.93;;
20336;SDS011;10326;53.660;10.200;2022-12-07T09:58:41;6.10;;;3.57;;
20336;SDS011;10326;53.660;10.200;2022-12-07T10:01:10;8.10;;;3.23;;
20336;SDS011;10326;53.660;10.200;2022-12-07T10:03:48;4.17;;;3.00;;
20336;SDS011;10326;53.660;10.200;2022-12-07T10:06:18;4.60;;;2.90;;
20336;SDS011;10326;53.660;10.200;2022-12-07T10:08:46;7.82;;;3.70;;
20336;SDS011;10326;53.660;10.200;2022-12-07T10:11:13;7.07;;;3.58;;
20336;SDS011;10326;53.660;10.200;2022-12-07T10:13:43;5.28;;;3.35;;
20336;SDS011;10326;53.660;10.200;2022-12-07T10:16:28;4.93;;;3.13;;
20336;SDS011;10326;53.660;10.200;2022-12-07T10:19:17;9.17;;;2.80;;
20336;SDS011;10326;53.660;10.200;2022-12-07T10:22:02;9.70;;;2.90;;
20336;SDS011;10326;53.660;10.200;2022-12-07T10:24:35;8.63;;;2.72;;
20336;SDS011;10326;53.660;10.200;2022-12-07T10:27:04;4.60;;;2.00;;
20336;SDS011;10326;53.660;10.200;2022-12-07T10:29:47;4.18;;;2.20;;
20336;SDS011;10326;53.660;10.200;2022-12-07T10:32:30;6.78;;;1.70;;
20336;SDS011;10326;53.660;10.200;2022-12-07T10:35:18;5.40;;;1.90;;
20336;SDS011;10326;53.660;10.200;2022-12-07T10:37:49;4.27;;;1.70;;
20336;SDS011;10326;53.660;10.200;2022-12-07T10:40:29;6.75;;;2.00;;
20336;SDS011;10326;53.660;10.200;2022-12-07T10:43:03;4.60;;;1.80;;
20336;SDS011;10326;53.660;10.200;2022-12-07T10:45:43;3.88;;;1.73;;
20336;SDS011;10326;53.660;10.200;2022-12-07T10:48:34;5.93;;;1.90;;
20336;SDS011;10326;53.660;10.200;2022-12-07T10:51:11;4.07;;;1.80;;
20336;SDS011;10326;53.660;10.200;2022-12-07T10:53:52;4.23;;;1.90;;
20336;SDS011;10326;53.660;10.200;2022-12-07T10:56:36;7.68;;;1.98;;
20336;SDS011;10326;53.660;10.200;2022-12-07T11:02:30;3.65;;;1.90;;
20336;SDS011;10326;53.660;10.200;2022-12-07T11:05:22;4.93;;;1.60;;
20336;SDS011;10326;53.660;10.200;2022-12-07T11:07:58;6.95;;;2.08;;
20336;SDS011;10326;53.660;10.200;2022-12-07T11:10:38;4.93;;;1.80;;
20336;SDS011;10326;53.660;10.200;2022-12-07T11:13:16;4.07;;;1.60;;
20336;SDS011;10326;53.660;10.200;2022-12-07T11:16:02;5.22;;;1.88;;
20336;SDS011;10326;53.660;10.200;2022-12-07T11:18:51;3.65;;;1.70;;
20336;SDS011;10326;53.660;10.200;2022-12-07T11:21:30;4.43;;;1.60;;
20336;SDS011;10326;53.660;10.200;2022-12-07T11:24:10;3.45;;;1.70;;
20336;SDS011;10326;53.660;10.200;2022-12-07T11:26:46;3.63;;;1.70;;
20336;SDS011;10326;53.660;10.200;2022-12-07T11:29:43;4.28;;;1.85;;
20336;SDS011;10326;53.660;10.200;2022-12-07T11:32:22;4.38;;;1.85;;
20336;SDS011;10326;53.660;10.200;2022-12-07T11:35:11;3.13;;;1.63;;
20336;SDS011;10326;53.660;10.200;2022-12-07T11:37:49;8.13;;;1.80;;
20336;SDS011;10326;53.660;10.200;2022-12-07T11:40:25;6.03;;;1.77;;
20336;SDS011;10326;53.660;10.200;2022-12-07T11:42:57;3.65;;;1.58;;
20336;SDS011;10326;53.660;10.200;2022-12-07T11:45:27;3.38;;;1.77;;
20336;SDS011;10326;53.660;10.200;2022-12-07T11:47:59;3.55;;;1.60;;
20336;SDS011;10326;53.660;10.200;2022-12-07T11:50:34;4.35;;;2.13;;
20336;SDS011;10326;53.660;10.200;2022-12-07T11:53:10;6.63;;;1.67;;
20336;SDS011;10326;53.660;10.200;2022-12-07T11:55:45;3.88;;;1.75;;
20336;SDS011;10326;53.660;10.200;2022-12-07T11:58:20;7.35;;;1.63;;
20336;SDS011;10326;53.660;10.200;2022-12-07T12:01:11;4.22;;;1.70;;
20336;SDS011;10326;53.660;10.200;2022-12-07T12:03:56;5.82;;;1.70;;
20336;SDS011;10326;53.660;10.200;2022-12-07T12:06:32;3.72;;;1.40;;
20336;SDS011;10326;53.660;10.200;2022-12-07T12:09:01;6.10;;;2.00;;
20336;SDS011;10326;53.660;10.200;2022-12-07T12:11:41;5.85;;;1.70;;
20336;SDS011;10326;53.660;10.200;2022-12-07T12:14:39;4.85;;;2.38;;
20336;SDS011;10326;53.660;10.200;2022-12-07T12:17:23;4.75;;;1.83;;
20336;SDS011;10326;53.660;10.200;2022-12-07T12:20:26;5.78;;;1.63;;
20336;SDS011;10326;53.660;10.200;2022-12-07T12:23:00;4.78;;;1.70;;
20336;SDS011;10326;53.660;10.200;2022-12-07T12:25:35;4.43;;;1.55;;
20336;SDS011;10326;53.660;10.200;2022-12-07T12:28:15;5.70;;;1.77;;
20336;SDS011;10326;53.660;10.200;2022-12-07T12:31:04;6.82;;;2.22;;
20336;SDS011;10326;53.660;10.200;2022-12-07T12:33:38;5.53;;;3.00;;
20336;SDS011;10326;53.660;10.200;2022-12-07T12:36:19;6.20;;;1.90;;
20336;SDS011;10326;53.660;10.200;2022-12-07T12:39:07;7.63;;;3.50;;
20336;SDS011;10326;53.660;10.200;2022-12-07T12:41:55;4.65;;;1.90;;
20336;SDS011;10326;53.660;10.200;2022-12-07T12:50:28;4.55;;;1.40;;
20336;SDS011;10326;53.660;10.200;2022-12-07T12:53:19;5.43;;;1.20;;
20336;SDS011;10326;53.660;10.200;2022-12-07T13:01:53;2.47;;;1.30;;
20336;SDS011;10326;53.660;10.200;2022-12-07T13:10:25;6.80;;;1.25;;
20336;SDS011;10326;53.660;10.200;2022-12-07T13:25:22;5.30;;;1.23;;
20336;SDS011;10326;53.660;10.200;2022-12-07T13:28:00;2.80;;;1.20;;
20336;SDS011;10326;53.660;10.200;2022-12-07T13:30:35;3.90;;;1.40;;
20336;SDS011;10326;53.660;10.200;2022-12-07T13:33:13;3.13;;;1.00;;
20336;SDS011;10326;53.660;10.200;2022-12-07T13:35:44;4.15;;;1.20;;
20336;SDS011;10326;53.660;10.200;2022-12-07T13:38:22;4.53;;;1.55;;
20336;SDS011;10326;53.660;10.200;2022-12-07T13:41:00;3.33;;;1.40;;
20336;SDS011;10326;53.660;10.200;2022-12-07T13:43:30;2.47;;;1.08;;
20336;SDS011;10326;53.660;10.200;2022-12-07T13:45:59;4.22;;;1.20;;
20336;SDS011;10326;53.660;10.200;2022-12-07T13:48:28;3.30;;;1.10;;
20336;SDS011;10326;53.660;10.200;2022-12-07T13:50:59;3.55;;;1.20;;
20336;SDS011;10326;53.660;10.200;2022-12-07T13:53:29;2.33;;;0.90;;
20336;SDS011;10326;53.660;10.200;2022-12-07T13:55:57;2.13;;;1.00;;
20336;SDS011;10326;53.660;10.200;2022-12-07T13:58:25;1.15;;;0.73;;
20336;SDS011;10326;53.660;10.200;2022-12-07T14:00:58;2.72;;;1.02;;
20336;SDS011;10326;53.660;10.200;2022-12-07T14:03:27;2.45;;;1.02;;
20336;SDS011;10326;53.660;10.200;2022-12-07T14:06:15;4.30;;;1.25;;
20336;SDS011;10326;53.660;10.200;2022-12-07T14:08:50;3.92;;;1.00;;
20336;SDS011;10326;53.660;10.200;2022-12-07T14:11:32;2.00;;;0.90;;
20336;SDS011;10326;53.660;10.200;2022-12-07T14:14:00;2.38;;;0.90;;
20336;SDS011;10326;53.660;10.200;2022-12-07T14:16:30;3.20;;;1.08;;
20336;SDS011;10326;53.660;10.200;2022-12-07T14:19:00;3.22;;;0.90;;
20336;SDS011;10326;53.660;10.200;2022-12-07T14:21:30;3.03;;;0.93;;
20336;SDS011;10326;53.660;10.200;2022-12-07T14:24:07;4.65;;;1.02;;
20336;SDS011;10326;53.660;10.200;2022-12-07T14:26:42;2.67;;;1.10;;
20336;SDS011;10326;53.660;10.200;2022-12-07T14:29:21;1.73;;;0.80;;
20336;SDS011;10326;53.660;10.200;2022-12-07T14:31:58;2.30;;;0.80;;
20336;SDS011;10326;53.660;10.200;2022-12-07T14:34:56;2.85;;;1.27;;
20336;SDS011;10326;53.660;10.200;2022-12-07T14:37:28;4.20;;;1.45;;
20336;SDS011;10326;53.660;10.200;2022-12-07T14:39:56;2.08;;;1.00;;
20336;SDS011;10326;53.660;10.200;2022-12-07T14:42:24;3.15;;;0.95;;
20336;SDS011;10326;53.660;10.200;2022-12-07T14:44:55;5.97;;;1.20;;
20336;SDS011;10326;53.660;10.200;2022-12-07T14:47:24;2.90;;;1.02;;
20336;SDS011;10326;53.660;10.200;2022-12-07T14:49:52;4.25;;;2.10;;
20336;SDS011;10326;53.660;10.200;2022-12-07T14:52:21;3.53;;;2.10;;
20336;SDS011;10326;53.660;10.200;2022-12-07T14:54:51;5.40;;;1.95;;
20336;SDS011;10326;53.660;10.200;2022-12-07T14:57:19;3.63;;;1.90;;
20336;SDS011;10326;53.660;10.200;2022-12-07T14:59:46;3.53;;;1.50;;
20336;SDS011;10326;53.660;10.200;2022-12-07T15:02:13;3.33;;;1.58;;
20336;SDS011;10326;53.660;10.200;2022-12-07T15:04:43;3.05;;;1.70;;
20336;SDS011;10326;53.660;10.200;2022-12-07T15:07:12;1.95;;;1.77;;
20336;SDS011;10326;53.660;10.200;2022-12-07T15:09:45;3.30;;;1.50;;
20336;SDS011;10326;53.660;10.200;2022-12-07T15:12:12;5.65;;;1.83;;
20336;SDS011;10326;53.660;10.200;2022-12-07T15:14:39;3.47;;;1.50;;
20336;SDS011;10326;53.660;10.200;2022-12-07T15:17:07;4.57;;;1.73;;
20336;SDS011;10326;53.660;10.200;2022-12-07T15:19:37;3.20;;;1.80;;
20336;SDS011;10326;53.660;10.200;2022-12-07T15:22:06;3.47;;;1.38;;
20336;SDS011;10326;53.660;10.200;2022-12-07T15:24:36;2.93;;;1.20;;
20336;SDS011;10326;53.660;10.200;2022-12-07T15:27:03;5.67;;;1.70;;
20336;SDS011;10326;53.660;10.200;2022-12-07T15:29:30;2.40;;;1.40;;
20336;SDS011;10326;53.660;10.200;2022-12-07T15:31:58;2.97;;;1.23;;
20336;SDS011;10326;53.660;10.200;2022-12-07T15:34:25;2.77;;;1.47;;